Time;durP1;ratioP1;P1;durP2;ratioP2;P2;SDS_P1;SDS_P2;PMS_P1;PMS_P2;Temp;Humidity;BMP_temperature;BMP_pressure;BME280_temperature;BME280_humidity;BME280_pressure;Samples;Min_cycle;Max_cycle;Signal;HPM_P1;HPM_P2
2023/12/03 00:00:21;;;;;;;;;;;;;;;28.85;60.06;100947.44;5075312;27;64748;-33
2023/12/03 00:02:51;;;;;;;;;;;;;;;28.88;60.31;100955.13;5067431;27;69501;-34
2023/12/03 00:05:21;;;;;;;;;;;;;;;28.89;60.28;100952.22;5067254;27;65625;-34
2023/12/03 00:07:51;;;;;;;;;;;;;;;28.85;61.01;100953.66;5069934;28;68957;-34
2023/12/03 00:10:20;;;;;;;;;;;;;;;28.84;63.96;100957.41;5067768;28;67003;-34
2023/12/03 00:12:50;;;;;;;;;;;;;;;28.90;65.41;100961.16;5066257;28;70657;-34
2023/12/03 00:15:21;;;;;;;;;;;;;;;28.92;66.94;100954.50;5066998;27;65794;-34
2023/12/03 00:17:51;;;;;;;;;;;;;;;28.97;67.88;100964.69;5064667;28;69887;-35
2023/12/03 00:20:21;;;;;;;;;;;;;;;29.02;68.61;100969.47;5068614;28;67240;-35
2023/12/03 00:22:51;;;;;;;;;;;;;;;29.09;69.88;100973.06;5072985;28;70607;-34
2023/12/03 00:25:20;;;;;;;;;;;;;;;29.12;70.21;100980.75;5072839;27;66694;-33
2023/12/03 00:27:52;;;;;;;;;;;;;;;29.14;71.28;100978.66;5073007;28;69406;-35
2023/12/03 00:30:22;;;;;;;;;;;;;;;29.08;73.30;100982.19;5068578;27;65322;-34
2023/12/03 00:32:51;;;;;;;;;;;;;;;28.97;74.15;100994.38;5070648;27;70023;-35
2023/12/03 00:35:21;;;;;;;;;;;;;;;28.99;74.46;100986.91;5066548;27;66726;-35
2023/12/03 00:37:51;;;;;;;;;;;;;;;29.04;74.02;100997.97;5069075;27;69149;-35
2023/12/03 00:40:20;;;;;;;;;;;;;;;29.08;74.76;101001.09;5069765;28;65145;-35
2023/12/03 00:42:54;;;;;;;;;;;;;;;29.07;75.01;101000.25;5064732;28;69649;-35
2023/12/03 00:45:24;;;;;;;;;;;;;;;29.08;75.11;101011.88;5067649;28;66325;-35
2023/12/03 00:47:53;;;;;;;;;;;;;;;29.09;75.63;101018.97;5069416;28;71058;-34
2023/12/03 00:50:23;;;;;;;;;;;;;;;29.07;76.07;101026.44;5068294;28;66850;-34
2023/12/03 00:52:53;;;;;;;;;;;;;;;29.10;73.80;101036.84;5068006;28;69885;-34
2023/12/03 00:55:22;;;;;;;;;;;;;;;29.12;71.67;101045.56;5070565;28;65388;-33
2023/12/03 00:57:52;;;;;;;;;;;;;;;29.14;70.90;101044.34;5067534;27;69615;-34
2023/12/03 01:00:22;;;;;;;;;;;;;;;29.18;70.08;101044.75;5075309;28;65485;-34
2023/12/03 01:02:51;;;;;;;;;;;;;;;29.22;69.06;101050.56;5067574;27;69842;-33
2023/12/03 01:05:21;;;;;;;;;;;;;;;29.24;68.56;101054.72;5064719;28;66983;-34
2023/12/03 01:07:51;;;;;;;;;;;;;;;29.28;68.57;101061.41;5064718;28;69992;-34
2023/12/03 01:10:20;;;;;;;;;;;;;;;29.29;67.81;101063.06;5064056;28;66609;-34
2023/12/03 01:12:50;;;;;;;;;;;;;;;29.31;68.11;101066.41;5065619;27;70160;-34
2023/12/03 01:15:19;;;;;;;;;;;;;;;29.34;67.98;101070.56;5064655;28;66705;-33
2023/12/03 01:17:49;;;;;;;;;;;;;;;29.37;67.80;101075.53;5073446;27;69709;-34
2023/12/03 01:20:19;;;;;;;;;;;;;;;29.38;67.63;101061.81;5065384;28;66959;-34
2023/12/03 01:22:49;;;;;;;;;;;;;;;29.39;67.63;101066.19;5071538;28;70638;-34
2023/12/03 01:25:18;;;;;;;;;;;;;;;29.43;67.02;101069.31;5070614;28;66652;-33
2023/12/03 01:27:48;;;;;;;;;;;;;;;29.45;67.50;101071.78;5062871;28;70520;-33
2023/12/03 01:30:17;;;;;;;;;;;;;;;29.46;67.00;101071.59;5075082;28;66168;-35
2023/12/03 01:32:47;;;;;;;;;;;;;;;29.48;67.40;101066.00;5080007;28;69953;-34
2023/12/03 01:35:17;;;;;;;;;;;;;;;29.50;66.87;101069.31;5082783;27;65611;-34
2023/12/03 01:37:47;;;;;;;;;;;;;;;29.51;67.19;101055.59;5082732;28;69628;-34
2023/12/03 01:40:16;;;;;;;;;;;;;;;29.53;67.25;101053.53;5083357;27;65904;-34
2023/12/03 01:42:46;;;;;;;;;;;;;;;29.56;66.55;101054.97;5082685;27;70871;-35
2023/12/03 01:45:16;;;;;;;;;;;;;;;29.56;66.98;101057.66;5082600;27;66037;-34
2023/12/03 01:47:46;;;;;;;;;;;;;;;29.57;66.78;101059.34;5082749;27;69991;-34
2023/12/03 01:50:16;;;;;;;;;;;;;;;29.59;66.46;101052.69;5081279;28;66981;-33
2023/12/03 01:52:46;;;;;;;;;;;;;;;29.61;66.48;101060.59;5082948;27;70449;-35
2023/12/03 01:55:18;;;;;;;;;;;;;;;29.62;66.60;101048.75;5082581;27;66110;-35
2023/12/03 01:57:48;;;;;;;;;;;;;;;29.64;66.61;101049.38;5081438;28;70037;-34
2023/12/03 02:00:18;;;;;;;;;;;;;;;29.65;66.61;101051.06;5083117;27;66268;-36
2023/12/03 02:02:47;;;;;;;;;;;;;;;29.66;66.26;101046.47;5069384;28;68768;-34
2023/12/03 02:05:17;;;;;;;;;;;;;;;29.67;66.45;101049.00;5082637;27;66045;-35
2023/12/03 02:07:47;;;;;;;;;;;;;;;29.69;66.48;101052.31;5081614;28;69488;-34
2023/12/03 02:10:16;;;;;;;;;;;;;;;29.71;65.99;101055.63;5082121;27;65491;-34
2023/12/03 02:12:46;;;;;;;;;;;;;;;29.72;66.04;101051.88;5081780;27;69078;-35
2023/12/03 02:15:15;;;;;;;;;;;;;;;29.73;66.41;101053.56;5082829;28;66007;-35
2023/12/03 02:17:45;;;;;;;;;;;;;;;29.75;66.52;101059.56;5082005;27;70282;-36
2023/12/03 02:20:15;;;;;;;;;;;;;;;29.76;66.31;101053.16;5082059;28;66769;-34
2023/12/03 02:23:02;;;;;;;;;;;;;;;29.78;66.49;101056.47;5082837;28;69741;-35
2023/12/03 02:25:32;;;;;;;;;;;;;;;29.80;65.79;101062.50;5069485;28;67006;-36
2023/12/03 02:28:02;;;;;;;;;;;;;;;29.81;66.05;101056.06;5082263;27;69855;-34
2023/12/03 02:30:32;;;;;;;;;;;;;;;29.83;66.14;101064.78;5082148;27;65654;-34
2023/12/03 02:33:05;;;;;;;;;;;;;;;29.84;66.25;101061.03;5075045;27;63978;-34
2023/12/03 02:35:35;;;;;;;;;;;;;;;29.88;65.94;101072.25;5082636;27;67097;-33
2023/12/03 02:38:04;;;;;;;;;;;;;;;29.91;66.21;101071.03;5082031;27;70258;-35
2023/12/03 02:40:35;;;;;;;;;;;;;;;29.92;66.40;101067.25;5082022;28;65978;-34
2023/12/03 02:43:05;;;;;;;;;;;;;;;29.91;66.44;101071.03;5082145;28;70880;-34
2023/12/03 02:45:35;;;;;;;;;;;;;;;29.95;66.38;101066.84;5079900;27;66057;-35
2023/12/03 02:48:05;;;;;;;;;;;;;;;29.96;65.74;101063.13;5081355;28;69753;-34
2023/12/03 02:50:38;;;;;;;;;;;;;;;29.98;66.36;101066.44;5081126;28;67263;-35
2023/12/03 02:53:08;;;;;;;;;;;;;;;30.01;65.65;101066.03;5080941;27;69243;-34
2023/12/03 02:55:37;;;;;;;;;;;;;;;30.00;68.52;101064.34;5072990;27;66898;-35
2023/12/03 02:58:11;;;;;;;;;;;;;;;29.99;69.16;101051.88;5062251;28;69885;-35
2023/12/03 03:00:41;;;;;;;;;;;;;;;29.97;69.65;101059.34;5060038;28;66406;-35
2023/12/03 03:03:11;;;;;;;;;;;;;;;29.96;69.92;101063.94;5067369;28;70110;-33
2023/12/03 03:05:40;;;;;;;;;;;;;;;29.96;70.09;101057.72;5068449;28;66503;-34
2023/12/03 03:08:10;;;;;;;;;;;;;;;29.95;70.47;101056.03;5071273;27;71101;-36
2023/12/03 03:10:40;;;;;;;;;;;;;;;29.97;70.51;101053.94;5062681;28;66731;-34
2023/12/03 03:13:10;;;;;;;;;;;;;;;29.98;70.16;101045.63;5062243;28;69234;-33
2023/12/03 03:15:39;;;;;;;;;;;;;;;30.00;70.76;101043.53;5068302;28;66618;-33
2023/12/03 03:18:09;;;;;;;;;;;;;;;30.03;70.93;101042.28;5070408;27;70638;-33
2023/12/03 03:20:39;;;;;;;;;;;;;;;30.05;70.42;101040.19;5061165;28;66637;-34
2023/12/03 03:23:09;;;;;;;;;;;;;;;30.07;70.37;101043.53;5074067;27;69965;-33
2023/12/03 03:25:39;;;;;;;;;;;;;;;30.08;70.31;101050.59;5079851;27;66407;-32
2023/12/03 03:28:09;;;;;;;;;;;;;;;30.08;70.25;101045.19;5083929;28;70352;-34
2023/12/03 03:30:38;;;;;;;;;;;;;;;30.12;70.28;101045.63;5078828;27;66640;-34
2023/12/03 03:33:09;;;;;;;;;;;;;;;30.13;70.58;101045.41;5072269;28;69754;-34
2023/12/03 03:35:38;;;;;;;;;;;;;;;30.17;70.22;101040.38;5077367;27;67062;-34
2023/12/03 03:38:08;;;;;;;;;;;;;;;30.17;71.19;101033.13;5083977;27;70068;-33
2023/12/03 03:40:37;;;;;;;;;;;;;;;30.21;70.31;101033.53;5074179;28;66041;-35
2023/12/03 03:43:07;;;;;;;;;;;;;;;30.21;69.95;101034.34;5070764;27;70615;-36
2023/12/03 03:45:37;;;;;;;;;;;;;;;30.24;70.16;101039.38;5071060;28;67129;-34
2023/12/03 03:48:07;;;;;;;;;;;;;;;30.26;69.75;101036.47;5073630;27;70648;-33
2023/12/03 03:50:36;;;;;;;;;;;;;;;30.28;68.60;101018.09;5066171;28;66475;-35
2023/12/03 03:53:09;;;;;;;;;;;;;;;30.28;68.02;101023.53;5062727;28;69315;-34
2023/12/03 03:55:42;;;;;;;;;;;;;;;30.30;68.49;101021.44;5083842;27;67163;-34
2023/12/03 03:58:12;;;;;;;;;;;;;;;30.33;68.50;101026.44;5083520;27;70681;-33
2023/12/03 04:00:45;;;;;;;;;;;;;;;30.36;69.32;101028.69;5073727;27;66093;-33
2023/12/03 04:03:15;;;;;;;;;;;;;;;30.40;69.63;101015.59;5078889;27;70498;-34
2023/12/03 04:05:44;;;;;;;;;;;;;;;30.43;70.03;101016.00;5082134;28;66595;-35
2023/12/03 04:08:14;;;;;;;;;;;;;;;30.43;70.45;101010.56;5078086;28;70477;-36
2023/12/03 04:10:44;;;;;;;;;;;;;;;30.46;70.27;101010.16;5070185;27;66112;-34
2023/12/03 04:13:14;;;;;;;;;;;;;;;30.48;70.17;100999.13;5065312;28;69100;-34
2023/12/03 04:15:44;;;;;;;;;;;;;;;30.51;69.78;101004.09;5064929;28;66896;-33
2023/12/03 04:18:14;;;;;;;;;;;;;;;30.54;68.83;101000.97;5067631;28;70600;-34
2023/12/03 04:20:44;;;;;;;;;;;;;;;30.58;68.34;100991.34;5068646;27;66931;-33
2023/12/03 04:23:14;;;;;;;;;;;;;;;30.65;68.60;101002.16;5068583;28;69800;-33
2023/12/03 04:25:43;;;;;;;;;;;;;;;30.70;69.25;100980.66;5071558;27;65263;-33
2023/12/03 04:28:13;;;;;;;;;;;;;;;30.72;67.53;100976.69;5077472;28;69842;-34
2023/12/03 04:30:43;;;;;;;;;;;;;;;30.78;68.64;100982.28;5070848;27;67080;-35
2023/12/03 04:33:12;;;;;;;;;;;;;;;30.80;68.26;100966.69;5067490;28;70352;-34
2023/12/03 04:35:42;;;;;;;;;;;;;;;30.82;67.73;100967.31;5073227;27;67966;-34
2023/12/03 04:38:12;;;;;;;;;;;;;;;30.81;68.38;100962.91;5070254;27;70976;-35
2023/12/03 04:40:42;;;;;;;;;;;;;;;30.83;68.75;100966.25;5070661;28;66746;-33
2023/12/03 04:43:12;;;;;;;;;;;;;;;30.84;68.88;100957.06;5067681;28;70268;-35
2023/12/03 04:45:42;;;;;;;;;;;;;;;30.89;69.22;100955.34;5070344;28;66752;-34
2023/12/03 04:48:11;;;;;;;;;;;;;;;30.98;68.63;100946.97;5067183;28;69841;-35
2023/12/03 04:50:41;;;;;;;;;;;;;;;31.03;68.09;100945.25;5068989;28;66001;-34
2023/12/03 04:53:11;;;;;;;;;;;;;;;31.11;67.73;100941.47;5064046;28;70704;-33
2023/12/03 04:55:40;;;;;;;;;;;;;;;31.16;67.55;100939.75;5075719;28;66283;-34
2023/12/03 04:58:10;;;;;;;;;;;;;;;31.23;67.67;100936.16;5066747;28;68350;-33
2023/12/03 05:00:41;;;;;;;;;;;;;;;31.27;67.39;100923.84;5068534;27;67915;-33
2023/12/03 05:03:11;;;;;;;;;;;;;;;31.31;67.21;100925.03;5065773;27;70283;-33
2023/12/03 05:05:41;;;;;;;;;;;;;;;31.34;67.03;100919.16;5064353;28;65915;-34
2023/12/03 05:08:10;;;;;;;;;;;;;;;31.38;67.18;100915.81;5070664;27;69783;-33
2023/12/03 05:10:40;;;;;;;;;;;;;;;31.40;66.87;100907.47;5065304;28;65559;-33
2023/12/03 05:13:10;;;;;;;;;;;;;;;31.43;66.92;100904.31;5065961;28;69521;-33
2023/12/03 05:15:39;;;;;;;;;;;;;;;31.45;67.26;100899.47;5075997;28;66979;-35
2023/12/03 05:18:09;;;;;;;;;;;;;;;31.48;68.03;100899.06;5063592;28;70749;-33
2023/12/03 05:20:39;;;;;;;;;;;;;;;31.51;67.89;100901.31;5070086;27;66929;-33
2023/12/03 05:23:09;;;;;;;;;;;;;;;31.42;68.70;100888.28;5067960;28;71037;-35
2023/12/03 05:25:39;;;;;;;;;;;;;;;31.33;69.36;100882.28;5064739;28;66767;-33
2023/12/03 05:28:08;;;;;;;;;;;;;;;31.28;69.58;100876.69;5074669;28;70147;-34
2023/12/03 05:30:42;;;;;;;;;;;;;;;31.22;70.12;100878.41;5067126;27;65305;-34
2023/12/03 05:33:12;;;;;;;;;;;;;;;31.22;69.08;100881.13;5082991;27;70243;-35
2023/12/03 05:35:42;;;;;;;;;;;;;;;31.19;68.76;100872.63;5081212;28;66924;-33
2023/12/03 05:38:11;;;;;;;;;;;;;;;31.19;68.28;100872.63;5082709;27;69773;-36
2023/12/03 05:40:45;;;;;;;;;;;;;;;31.16;68.47;100869.28;5070594;27;65387;-34
2023/12/03 05:43:15;;;;;;;;;;;;;;;31.14;68.97;100860.56;5066987;28;70509;-33
2023/12/03 05:45:45;;;;;;;;;;;;;;;31.15;69.17;100862.22;5083260;27;66676;-34
2023/12/03 05:48:15;;;;;;;;;;;;;;;31.12;69.23;100857.25;5081690;27;69258;-34
2023/12/03 05:50:45;;;;;;;;;;;;;;;31.12;69.16;100851.84;5061500;28;66128;-33
2023/12/03 05:53:14;;;;;;;;;;;;;;;31.10;69.31;100843.09;5066340;28;70726;-34
2023/12/03 05:55:44;;;;;;;;;;;;;;;31.12;69.23;100842.84;5080890;28;66062;-33
2023/12/03 05:58:13;;;;;;;;;;;;;;;31.12;69.29;100834.72;5082474;28;69475;-34
2023/12/03 06:00:43;;;;;;;;;;;;;;;31.14;67.85;100836.16;5082999;27;66423;-35
2023/12/03 06:03:16;;;;;;;;;;;;;;;31.14;67.09;100833.47;5083164;27;70324;-34
2023/12/03 06:05:46;;;;;;;;;;;;;;;31.13;67.27;100829.09;5081832;27;66595;-35
2023/12/03 06:08:16;;;;;;;;;;;;;;;31.04;65.98;100833.16;5082808;27;68879;-34
2023/12/03 06:10:46;;;;;;;;;;;;;;;30.78;63.73;100833.34;5082540;27;66863;-32
2023/12/03 06:13:16;;;;;;;;;;;;;;;30.65;61.83;100835.13;5080858;27;69915;-32
2023/12/03 06:15:46;;;;;;;;;;;;;;;30.44;59.16;100832.75;5069699;28;66059;-33
2023/12/03 06:18:16;;;;;;;;;;;;;;;30.34;58.57;100824.28;5068022;27;69188;-33
2023/12/03 06:20:46;;;;;;;;;;;;;;;30.17;56.71;100826.66;5073924;28;66098;-34
2023/12/03 06:23:15;;;;;;;;;;;;;;;30.05;56.25;100834.63;5081693;27;70027;-34
2023/12/03 06:25:46;;;;;;;;;;;;;;;29.95;55.21;100831.53;5081810;28;65752;-34
2023/12/03 06:28:16;;;;;;;;;;;;;;;29.89;55.37;100824.28;5080457;27;70569;-35
2023/12/03 06:30:47;;;;;;;;;;;;;;;29.84;54.60;100822.25;5070072;27;65914;-36
2023/12/03 06:33:19;;;;;;;;;;;;;;;29.76;53.98;100819.78;5073386;28;69129;-36
2023/12/03 06:35:53;;;;;;;;;;;;;;;29.72;52.95;100823.94;5073710;28;67232;-35
2023/12/03 06:38:23;;;;;;;;;;;;;;;29.67;52.20;100810.25;5082024;27;69834;-34
2023/12/03 06:40:53;;;;;;;;;;;;;;;29.61;51.17;100825.41;5082452;27;66062;-36
2023/12/03 06:43:23;;;;;;;;;;;;;;;29.59;50.83;100824.81;5081534;27;70451;-34
2023/12/03 06:45:53;;;;;;;;;;;;;;;29.53;50.11;100820.25;5082029;27;66616;-33
2023/12/03 06:48:23;;;;;;;;;;;;;;;29.51;49.75;100817.75;5081501;28;70424;-34
2023/12/03 06:50:56;;;;;;;;;;;;;;;29.45;49.80;100815.91;5071006;27;66896;-34
2023/12/03 06:53:46;;;;;;;;;;;;;;;29.42;49.00;100812.78;5080275;27;69746;-34
2023/12/03 06:56:15;;;;;;;;;;;;;;;29.39;48.76;100814.88;5080727;27;66284;-34
2023/12/03 06:58:45;;;;;;;;;;;;;;;29.33;48.95;100810.31;5081310;27;70630;-35
2023/12/03 07:01:14;;;;;;;;;;;;;;;29.30;48.39;100805.34;5084659;27;65553;-33
2023/12/03 07:03:44;;;;;;;;;;;;;;;29.30;48.50;100804.50;5083354;28;70226;-33
2023/12/03 07:06:14;;;;;;;;;;;;;;;29.25;48.49;100807.00;5083322;28;66713;-36
2023/12/03 07:08:44;;;;;;;;;;;;;;;29.24;48.20;100799.94;5080050;27;69725;-35
2023/12/03 07:11:14;;;;;;;;;;;;;;;29.24;47.69;100806.19;5074749;28;67211;-33
2023/12/03 07:13:44;;;;;;;;;;;;;;;29.22;47.76;100797.44;5082143;28;70653;-35
2023/12/03 07:16:14;;;;;;;;;;;;;;;29.17;47.24;100794.56;5085829;27;67020;-33
2023/12/03 07:18:44;;;;;;;;;;;;;;;29.16;47.03;100795.59;5082235;28;69688;-33
2023/12/03 07:21:14;;;;;;;;;;;;;;;29.15;47.02;100786.66;5084780;27;65245;-35
2023/12/03 07:23:44;;;;;;;;;;;;;;;29.16;46.82;100799.13;5083489;28;70403;-35
2023/12/03 07:26:13;;;;;;;;;;;;;;;29.12;46.79;100792.50;5082253;28;66311;-33
2023/12/03 07:28:43;;;;;;;;;;;;;;;29.11;47.08;100792.69;5072790;28;69043;-33
2023/12/03 07:31:13;;;;;;;;;;;;;;;29.01;46.40;100781.47;5084847;27;65825;-33
2023/12/03 07:33:42;;;;;;;;;;;;;;;29.01;46.59;100781.47;5083160;28;69937;-33
2023/12/03 07:36:12;;;;;;;;;;;;;;;28.95;46.07;100780.44;5084519;27;66017;-33
2023/12/03 07:38:42;;;;;;;;;;;;;;;28.95;46.26;100775.88;5076540;27;70022;-33
2023/12/03 07:41:12;;;;;;;;;;;;;;;28.93;45.85;100777.94;5068621;28;67116;-35
2023/12/03 07:43:41;;;;;;;;;;;;;;;28.90;45.80;100788.34;5076077;27;70617;-35
2023/12/03 07:46:18;;;;;;;;;;;;;;;28.88;46.36;100785.84;5065818;28;66003;-32
2023/12/03 07:48:48;;;;;;;;;;;;;;;29.17;53.63;100787.31;5076754;28;70293;-33
2023/12/03 07:51:18;;;;;;;;;;;;;;;29.44;57.23;100784.50;5082112;27;65467;-35
2023/12/03 07:53:47;;;;;;;;;;;;;;;29.65;59.73;100791.53;5082535;28;69722;-35
2023/12/03 07:56:17;;;;;;;;;;;;;;;29.80;61.62;100792.09;5085216;27;65884;-32
2023/12/03 07:58:46;;;;;;;;;;;;;;;29.95;62.28;100780.16;5084571;27;70027;-33
2023/12/03 08:01:16;;;;;;;;;;;;;;;30.06;63.02;100782.16;5083904;27;66099;-33
2023/12/03 08:03:46;;;;;;;;;;;;;;;30.17;63.37;100795.03;5084827;27;69677;-33
2023/12/03 08:06:15;;;;;;;;;;;;;;;30.25;63.55;100789.38;5084500;27;67328;-34
2023/12/03 08:08:45;;;;;;;;;;;;;;;30.34;64.55;100798.06;5084052;27;69335;-35
2023/12/03 08:11:15;;;;;;;;;;;;;;;30.41;64.92;100787.19;5083612;27;66111;-35
2023/12/03 08:13:45;;;;;;;;;;;;;;;30.47;64.76;100794.44;5084627;28;70618;-34
2023/12/03 08:16:16;;;;;;;;;;;;;;;30.52;65.51;100801.91;5080057;27;66356;-33
2023/12/03 08:18:45;;;;;;;;;;;;;;;30.59;64.94;100808.94;5071715;28;70526;-33
2023/12/03 08:21:17;;;;;;;;;;;;;;;30.62;64.62;100803.06;5077943;28;66844;-33
2023/12/03 08:23:47;;;;;;;;;;;;;;;30.67;64.52;100800.53;5082993;27;70665;-32
2023/12/03 08:26:17;;;;;;;;;;;;;;;30.69;64.87;100803.84;5084250;28;66063;-33
2023/12/03 08:28:46;;;;;;;;;;;;;;;30.72;65.48;100803.38;5074711;27;69681;-33
2023/12/03 08:31:16;;;;;;;;;;;;;;;30.77;65.16;100801.91;5065153;28;65523;-34
2023/12/03 08:33:46;;;;;;;;;;;;;;;30.80;65.47;100805.03;5068371;27;70254;-36
2023/12/03 08:36:18;;;;;;;;;;;;;;;30.84;66.00;100802.69;5067273;27;66925;-32
2023/12/03 08:38:49;;;;;;;;;;;;;;;30.88;66.30;100806.63;5090754;27;70326;-35
2023/12/03 08:41:19;;;;;;;;;;;;;;;30.93;66.66;100809.50;5066091;27;65929;-37
2023/12/03 08:43:48;;;;;;;;;;;;;;;30.94;66.18;100805.72;5076175;28;70286;-34
2023/12/03 08:46:20;;;;;;;;;;;;;;;30.97;66.29;100804.47;5069789;27;66950;-36
2023/12/03 08:48:50;;;;;;;;;;;;;;;31.01;66.83;100811.09;5069187;28;68798;-35
2023/12/03 08:51:20;;;;;;;;;;;;;;;31.04;66.70;100811.47;5073387;28;65567;-35
2023/12/03 08:53:49;;;;;;;;;;;;;;;31.06;66.42;100803.94;5062026;28;69844;-34
2023/12/03 08:56:19;;;;;;;;;;;;;;;31.07;66.70;100804.78;5074917;28;66080;-36
2023/12/03 08:58:49;;;;;;;;;;;;;;;31.10;66.71;100805.16;5067054;28;70254;-34
2023/12/03 09:01:20;;;;;;;;;;;;;;;31.12;66.84;100802.22;5068567;27;65988;-34
2023/12/03 09:03:50;;;;;;;;;;;;;;;31.13;66.58;100810.13;5067965;28;70334;-36
2023/12/03 09:06:20;;;;;;;;;;;;;;;31.12;66.61;100797.66;5065689;28;65456;-34
2023/12/03 09:08:50;;;;;;;;;;;;;;;31.15;66.49;100805.31;5066152;28;70221;-33
2023/12/03 09:11:22;;;;;;;;;;;;;;;31.17;67.04;100799.66;5068951;27;65567;-35
2023/12/03 09:13:51;;;;;;;;;;;;;;;31.20;66.99;100809.22;5069737;28;69362;-36
2023/12/03 09:16:21;;;;;;;;;;;;;;;31.22;67.70;100810.66;5072007;28;66777;-35
2023/12/03 09:18:51;;;;;;;;;;;;;;;31.21;67.81;100805.50;5068872;28;69833;-33
2023/12/03 09:21:21;;;;;;;;;;;;;;;31.23;67.67;100814.19;5072890;27;67013;-33
2023/12/03 09:23:51;;;;;;;;;;;;;;;31.24;67.75;100810.47;5073158;28;70101;-34
2023/12/03 09:26:20;;;;;;;;;;;;;;;31.25;67.40;100820.22;5075435;27;66897;-37
2023/12/03 09:28:53;;;;;;;;;;;;;;;31.23;67.86;100816.91;5083113;27;70514;-34
2023/12/03 09:31:23;;;;;;;;;;;;;;;31.23;67.74;100825.03;5082684;28;67182;-34
2023/12/03 09:33:53;;;;;;;;;;;;;;;31.21;67.74;100816.31;5071276;28;69319;-34
2023/12/03 09:36:23;;;;;;;;;;;;;;;31.20;67.75;100820.06;5079623;28;66310;-34
2023/12/03 09:38:52;;;;;;;;;;;;;;;31.19;68.51;100824.66;5064412;27;69954;-32
2023/12/03 09:41:24;;;;;;;;;;;;;;;31.20;68.31;100830.91;5080629;28;65995;-33
2023/12/03 09:43:59;;;;;;;;;;;;;;;31.21;68.56;100822.56;5082861;27;69120;-34
2023/12/03 09:46:32;;;;;;;;;;;;;;;31.21;68.45;100827.16;5082927;27;66392;-35
2023/12/03 09:49:04;;;;;;;;;;;;;;;31.19;68.43;100823.84;5082905;27;69442;-35
2023/12/03 09:51:38;;;;;;;;;;;;;;;31.22;68.81;100828.81;5081537;27;65919;-34
2023/12/03 09:54:11;;;;;;;;;;;;;;;31.24;69.43;100821.28;5080826;28;70769;-34
2023/12/03 09:56:45;;;;;;;;;;;;;;;31.23;69.23;100819.63;5064345;28;65358;-35
2023/12/03 09:59:15;;;;;;;;;;;;;;;31.23;69.59;100819.63;5080287;27;70580;-34
2023/12/03 10:01:45;;;;;;;;;;;;;;;31.23;69.14;100830.47;5082891;28;65528;-34
2023/12/03 10:04:15;;;;;;;;;;;;;;;31.20;69.74;100830.91;5082524;27;69605;-36
2023/12/03 10:06:46;;;;;;;;;;;;;;;31.20;69.49;100828.19;5082661;27;66620;-35
2023/12/03 10:09:16;;;;;;;;;;;;;;;31.18;69.60;100842.00;5074281;28;68797;-34
2023/12/03 10:11:53;;;;;;;;;;;;;;;31.13;69.70;100845.34;5082322;27;66668;-33
2023/12/03 10:14:23;;;;;;;;;;;;;;;31.14;69.21;100844.28;5082677;27;70599;-33
2023/12/03 10:16:52;;;;;;;;;;;;;;;31.15;69.78;100845.97;5082526;27;66683;-35
2023/12/03 10:19:22;;;;;;;;;;;;;;;31.15;69.45;100845.97;5081176;27;70674;-34
2023/12/03 10:21:52;;;;;;;;;;;;;;;31.13;69.41;100853.50;5078175;27;67205;-34
2023/12/03 10:24:22;;;;;;;;;;;;;;;31.13;69.51;100858.91;5082381;27;70832;-35
2023/12/03 10:26:54;;;;;;;;;;;;;;;31.15;69.29;100862.22;5081161;28;66653;-35
2023/12/03 10:29:46;;;;;;;;;;;;;;;31.14;69.59;100870.56;5078958;27;70326;-34
2023/12/03 10:32:16;;;;;;;;;;;;;;;31.14;70.10;100865.97;5073422;27;65739;-34
2023/12/03 10:34:48;;;;;;;;;;;;;;;31.14;69.94;100876.81;5072357;27;70860;-35
2023/12/03 10:37:22;;;;;;;;;;;;;;;31.14;69.92;100871.38;5072202;28;65847;-34
2023/12/03 10:39:52;;;;;;;;;;;;;;;31.14;69.63;100876.81;5067751;27;69786;-33
2023/12/03 10:42:21;;;;;;;;;;;;;;;31.12;69.79;100881.66;5082393;27;67050;-34
2023/12/03 10:44:51;;;;;;;;;;;;;;;31.13;69.70;100886.00;5069510;27;70101;-35
2023/12/03 10:47:21;;;;;;;;;;;;;;;31.12;69.51;100883.50;5081640;27;65368;-34
2023/12/03 10:49:52;;;;;;;;;;;;;;;31.12;69.56;100892.47;5081393;27;69080;-34
2023/12/03 10:52:22;;;;;;;;;;;;;;;31.12;69.80;100888.91;5082194;27;65675;-34
2023/12/03 10:54:52;;;;;;;;;;;;;;;31.10;70.06;100889.16;5072915;27;70066;-35
2023/12/03 10:57:23;;;;;;;;;;;;;;;31.11;69.80;100898.94;5077511;28;66662;-36
2023/12/03 10:59:58;;;;;;;;;;;;;;;31.11;69.91;100901.63;5081616;27;70639;-36
2023/12/03 11:02:32;;;;;;;;;;;;;;;31.09;69.57;100909.19;5081893;28;66132;-33
2023/12/03 11:05:04;;;;;;;;;;;;;;;31.11;69.08;100906.25;5081480;27;70328;-34
2023/12/03 11:07:34;;;;;;;;;;;;;;;31.07;69.28;100914.00;5080214;28;66231;-34
2023/12/03 11:10:10;;;;;;;;;;;;;;;31.07;68.84;100922.13;5080947;27;70476;-36
2023/12/03 11:12:40;;;;;;;;;;;;;;;31.07;69.28;100922.13;5069421;28;65201;-33
2023/12/03 11:15:09;;;;;;;;;;;;;;;31.09;68.87;100921.88;5080302;28;70834;-33
2023/12/03 11:17:41;;;;;;;;;;;;;;;31.09;69.32;100928.16;5081864;28;65750;-34
2023/12/03 11:20:17;;;;;;;;;;;;;;;31.07;68.65;100930.25;5079780;27;69369;-34
2023/12/03 11:23:08;;;;;;;;;;;;;;;31.06;69.02;100939.41;5069951;28;66384;-34
2023/12/03 11:25:49;;;;;;;;;;;;;;;31.04;69.38;100938.81;5070781;28;69732;-35
2023/12/03 11:28:19;;;;;;;;;;;;;;;31.03;69.47;100939.84;5077751;28;66360;-33
2023/12/03 11:30:49;;;;;;;;;;;;;;;31.03;69.62;100944.44;5078621;27;69936;-36
2023/12/03 11:33:20;;;;;;;;;;;;;;;31.02;69.26;100949.03;5075236;28;66738;-34
2023/12/03 11:35:50;;;;;;;;;;;;;;;31.02;69.60;100954.44;5078970;28;69907;-35
2023/12/03 11:38:21;;;;;;;;;;;;;;;31.01;69.72;100958.22;5079097;28;67070;-33
2023/12/03 11:40:51;;;;;;;;;;;;;;;31.00;69.68;100956.53;5079037;28;70359;-35
2023/12/03 11:43:24;;;;;;;;;;;;;;;30.99;69.88;100944.06;5081431;27;66621;-35
2023/12/03 11:45:54;;;;;;;;;;;;;;;30.98;70.20;100953.25;5081949;28;69915;-35
2023/12/03 11:48:27;;;;;;;;;;;;;;;30.99;69.83;100954.91;5084453;27;66919;-34
2023/12/03 11:50:58;;;;;;;;;;;;;;;30.99;69.81;100965.72;5082993;27;70234;-34
2023/12/03 11:53:49;;;;;;;;;;;;;;;30.98;70.16;100966.78;5081146;28;66359;-34
2023/12/03 11:56:21;;;;;;;;;;;;;;;30.97;70.26;100967.81;5068845;27;70390;-34
2023/12/03 11:58:56;;;;;;;;;;;;;;;31.00;69.61;100967.38;5081037;27;66413;-34
2023/12/03 12:01:26;;;;;;;;;;;;;;;30.98;69.58;100979.47;5082592;27;70667;-34
2023/12/03 12:03:56;;;;;;;;;;;;;;;30.98;70.15;100974.06;5081966;27;66700;-33
2023/12/03 12:06:27;;;;;;;;;;;;;;;31.09;69.53;100982.34;5082863;27;70094;-34
2023/12/03 12:08:58;;;;;;;;;;;;;;;31.20;68.59;100977.25;5084342;28;66645;-35
2023/12/03 12:11:28;;;;;;;;;;;;;;;31.25;68.69;100986.38;5084558;28;70024;-34
2023/12/03 12:13:58;;;;;;;;;;;;;;;31.31;68.36;100987.38;5083350;27;65217;-34
2023/12/03 12:16:29;;;;;;;;;;;;;;;31.35;68.39;100985.88;5084332;28;70736;-34
2023/12/03 12:18:59;;;;;;;;;;;;;;;31.38;68.10;100986.31;5084836;28;65776;-34
2023/12/03 12:21:29;;;;;;;;;;;;;;;31.40;68.09;100986.09;5083339;27;70544;-34
2023/12/03 12:23:59;;;;;;;;;;;;;;;31.42;68.16;100994.81;5072838;28;65295;-33
2023/12/03 12:26:29;;;;;;;;;;;;;;;31.44;68.11;100995.44;5083774;27;70776;-36
2023/12/03 12:28:59;;;;;;;;;;;;;;;31.47;67.23;100994.97;5083321;27;65974;-36
2023/12/03 12:31:29;;;;;;;;;;;;;;;31.05;65.85;100994.66;5084322;27;70801;-34
2023/12/03 12:33:59;;;;;;;;;;;;;;;30.86;65.73;101003.72;5083705;27;65779;-35
2023/12/03 12:36:29;;;;;;;;;;;;;;;30.67;65.82;101000.03;5083131;28;69500;-35
2023/12/03 12:38:59;;;;;;;;;;;;;;;30.40;65.41;100977.69;5083893;28;66883;-33
2023/12/03 12:41:41;;;;;;;;;;;;;;;30.50;64.15;101005.94;5084134;28;69314;-34
2023/12/03 12:44:11;;;;;;;;;;;;;;;30.38;62.99;101007.69;5083288;27;66203;-35
2023/12/03 12:47:07;;;;;;;;;;;;;;;30.26;62.82;101004.81;5082744;28;70469;-37
2023/12/03 12:49:40;;;;;;;;;;;;;;;30.22;65.42;101008.97;5082745;28;65270;-36
2023/12/03 12:52:10;;;;;;;;;;;;;;;30.22;65.67;101011.69;5083692;27;70189;-34